createdAt,value
2023-03-26T00:02:47.236Z,0.90
2023-03-26T00:07:49.037Z,1.00
2023-03-26T00:12:51.095Z,1.20
2023-03-26T00:17:54.331Z,0.80
2023-03-26T00:22:56.260Z,1.10
2023-03-26T00:27:59.332Z,0.85
2023-03-26T00:33:02.141Z,1.20
2023-03-26T00:38:04.347Z,0.80
2023-03-26T00:43:19.194Z,1.00
2023-03-26T00:48:28.940Z,1.00
2023-03-26T00:53:39.030Z,1.00
2023-03-26T00:58:41.740Z,1.20
2023-03-26T01:03:57.074Z,0.80
2023-03-26T01:09:17.148Z,1.20
2023-03-26T01:14:25.130Z,0.93
2023-03-26T01:19:38.202Z,0.93
2023-03-26T01:24:41.575Z,1.00
2023-03-26T01:29:53.577Z,0.60
2023-03-26T01:35:14.199Z,0.80
2023-03-26T01:40:25.528Z,0.70
2023-03-26T01:50:32.184Z,0.60
2023-03-26T01:56:29.569Z,0.65
2023-03-26T02:02:02.210Z,0.70
2023-03-26T02:07:14.995Z,1.08
2023-03-26T02:12:18.822Z,0.70
2023-03-26T02:17:24.354Z,0.50
2023-03-26T02:22:30.004Z,0.68
2023-03-26T02:27:34.057Z,0.80
2023-03-26T02:32:36.289Z,0.80
2023-03-26T02:37:39.569Z,0.93
2023-03-26T02:42:51.249Z,0.68
2023-03-26T02:47:53.545Z,0.60
2023-03-26T02:53:17.008Z,0.65
2023-03-26T02:58:25.387Z,0.90
2023-03-26T03:03:27.879Z,0.70
2023-03-26T03:09:02.906Z,0.52
2023-03-26T03:14:10.652Z,0.85
2023-03-26T03:19:13.547Z,0.95
2023-03-26T03:24:18.764Z,0.73
2023-03-26T03:29:23.795Z,1.05
2023-03-26T03:34:25.755Z,0.65
2023-03-26T03:39:27.601Z,0.85
2023-03-26T03:44:29.869Z,0.73
2023-03-26T03:49:32.189Z,0.90
2023-03-26T03:54:34.037Z,0.98
2023-03-26T03:59:58.305Z,0.70
2023-03-26T04:05:04.577Z,1.00
2023-03-26T04:10:08.798Z,0.57
2023-03-26T04:15:44.055Z,1.80
2023-03-26T04:20:46.832Z,0.95
2023-03-26T04:25:56.694Z,0.98
2023-03-26T04:31:15.811Z,0.85
2023-03-26T04:36:28.470Z,0.77
2023-03-26T04:41:32.577Z,1.17
2023-03-26T04:46:43.762Z,0.98
2023-03-26T04:51:57.722Z,1.13
2023-03-26T04:57:37.864Z,0.98
2023-03-26T05:02:49.812Z,1.17
2023-03-26T05:07:53.107Z,0.80
2023-03-26T05:12:56.447Z,1.10
2023-03-26T05:18:18.595Z,0.73
2023-03-26T05:23:27.095Z,1.25
2023-03-26T05:28:41.680Z,1.10
2023-03-26T05:33:51.196Z,1.33
2023-03-26T05:38:53.441Z,1.00
2023-03-26T05:49:15.780Z,1.10
2023-03-26T05:54:17.763Z,1.08
2023-03-26T05:59:38.137Z,1.08
2023-03-26T06:10:30.449Z,0.90
2023-03-26T06:15:32.399Z,0.82
2023-03-26T06:20:36.222Z,1.00
2023-03-26T06:25:45.727Z,0.95
2023-03-26T06:31:10.984Z,0.98
2023-03-26T06:36:18.037Z,1.15
2023-03-26T06:41:23.543Z,0.70
2023-03-26T06:46:43.495Z,1.23
2023-03-26T06:52:04.525Z,1.25
2023-03-26T06:57:24.778Z,1.40
2023-03-26T07:02:58.442Z,0.80
2023-03-26T07:08:18.764Z,1.10
2023-03-26T07:13:40.259Z,0.93
2023-03-26T07:19:00.774Z,1.00
2023-03-26T07:24:14.012Z,1.00
2023-03-26T07:29:48.823Z,1.58
2023-03-26T07:35:06.031Z,1.00
2023-03-26T07:40:47.893Z,1.02
2023-03-26T07:46:13.576Z,1.20
2023-03-26T07:51:26.590Z,1.35
2023-03-26T07:56:58.707Z,1.60
2023-03-26T08:02:47.108Z,1.30
2023-03-26T08:08:23.140Z,1.33
2023-03-26T08:13:54.031Z,1.17
2023-03-26T08:19:07.893Z,1.70
2023-03-26T08:24:22.963Z,1.25
2023-03-26T08:29:32.863Z,1.13
2023-03-26T08:34:34.702Z,1.25
2023-03-26T08:39:38.900Z,1.20
2023-03-26T08:45:02.282Z,2.28
2023-03-26T08:50:10.454Z,7.95
2023-03-26T08:55:12.591Z,7.10
2023-03-26T09:00:34.326Z,1.85
2023-03-26T09:06:11.081Z,2.15
2023-03-26T09:11:21.878Z,2.30
2023-03-26T09:16:42.690Z,1.90
2023-03-26T09:27:36.375Z,1.30
2023-03-26T09:32:56.376Z,1.55
2023-03-26T09:38:30.639Z,1.52
2023-03-26T09:43:51.484Z,1.35
2023-03-26T09:49:15.890Z,1.60
2023-03-26T09:55:20.748Z,1.70
2023-03-26T10:00:28.583Z,1.25
2023-03-26T10:06:02.930Z,1.30
2023-03-26T10:11:28.040Z,1.52
2023-03-26T10:16:44.875Z,1.33
2023-03-26T10:22:11.661Z,1.60
2023-03-26T10:27:16.482Z,2.47
2023-03-26T10:32:24.311Z,4.15
2023-03-26T10:37:37.252Z,4.40
2023-03-26T10:43:05.475Z,1.23
2023-03-26T10:48:42.701Z,3.13
2023-03-26T10:54:16.946Z,2.33
2023-03-26T10:59:19.356Z,1.48
2023-03-26T11:04:55.022Z,0.95
2023-03-26T11:10:12.493Z,1.50
2023-03-26T11:15:36.066Z,0.98
2023-03-26T11:20:50.625Z,1.45
2023-03-26T11:25:52.825Z,3.42
2023-03-26T11:31:20.922Z,4.40
2023-03-26T11:36:31.769Z,1.67
2023-03-26T11:41:33.569Z,0.85
2023-03-26T11:46:45.743Z,0.57
2023-03-26T11:51:48.637Z,0.82
2023-03-26T11:57:10.437Z,0.90
2023-03-26T12:02:23.755Z,2.28
2023-03-26T12:07:35.767Z,1.63
2023-03-26T12:12:41.468Z,3.05
2023-03-26T12:17:43.472Z,1.08
2023-03-26T12:22:47.897Z,0.80
2023-03-26T12:27:49.745Z,1.10
2023-03-26T12:32:56.578Z,0.68
2023-03-26T12:38:22.773Z,0.80
2023-03-26T12:44:55.429Z,0.98
2023-03-26T12:49:11.605Z,0.98
2023-03-26T12:54:23.874Z,1.45
2023-03-26T12:59:49.909Z,1.50
2023-03-26T13:05:40.417Z,1.38
2023-03-26T13:10:48.230Z,1.00
2023-03-26T13:15:57.090Z,0.65
2023-03-26T13:21:23.865Z,0.90
2023-03-26T13:27:01.189Z,0.80
2023-03-26T13:32:18.655Z,0.88
2023-03-26T13:37:46.115Z,1.05
2023-03-26T13:43:03.111Z,1.17
2023-03-26T13:48:13.108Z,0.80
2023-03-26T13:53:25.506Z,1.00
2023-03-26T13:59:13.377Z,1.40
2023-03-26T14:04:37.248Z,0.60
2023-03-26T14:09:57.340Z,0.88
2023-03-26T14:15:02.235Z,1.40
2023-03-26T14:20:25.659Z,1.48
2023-03-26T14:25:36.061Z,1.60
2023-03-26T14:30:48.256Z,1.30
2023-03-26T14:36:04.762Z,2.03
2023-03-26T14:41:24.191Z,3.08
2023-03-26T14:46:41.345Z,3.80
2023-03-26T14:52:13.649Z,2.00
2023-03-26T14:57:34.413Z,2.55
2023-03-26T15:02:39.306Z,1.15
2023-03-26T15:07:56.383Z,2.22
2023-03-26T15:13:43.458Z,1.52
2023-03-26T15:19:10.395Z,2.05
2023-03-26T15:24:27.719Z,3.45
2023-03-26T15:29:38.690Z,2.50
2023-03-26T15:35:05.970Z,1.42
2023-03-26T15:40:17.056Z,1.55
2023-03-26T15:45:31.096Z,1.58
2023-03-26T15:50:45.995Z,1.25
2023-03-26T15:56:09.090Z,3.45
2023-03-26T16:01:41.593Z,1.10
2023-03-26T16:06:59.319Z,0.80
2023-03-26T16:12:30.127Z,1.10
2023-03-26T16:18:15.854Z,0.90
2023-03-26T16:23:28.718Z,1.60
2023-03-26T16:28:45.382Z,2.00
2023-03-26T16:33:56.276Z,2.13
2023-03-26T16:39:04.747Z,2.00
2023-03-26T16:44:16.867Z,2.60
2023-03-26T16:49:35.757Z,7.00
2023-03-26T16:54:48.877Z,7.95
2023-03-26T17:00:30.017Z,2.90
2023-03-26T17:05:54.617Z,4.25
2023-03-26T17:10:59.688Z,4.25
2023-03-26T17:16:23.919Z,3.10
2023-03-26T17:22:10.420Z,1.75
2023-03-26T17:27:50.186Z,4.13
2023-03-26T17:33:00.025Z,9.23
2023-03-26T17:38:02.639Z,17.90
2023-03-26T17:43:11.544Z,11.70
2023-03-26T17:48:21.878Z,19.70
2023-03-26T17:53:31.216Z,3.33
2023-03-26T17:58:42.717Z,7.43
2023-03-26T18:03:49.545Z,3.33
2023-03-26T18:09:33.601Z,4.32
2023-03-26T18:14:41.329Z,1.45
2023-03-26T18:19:54.774Z,1.10
2023-03-26T18:25:02.517Z,1.58
2023-03-26T18:30:18.036Z,2.42
2023-03-26T18:35:21.979Z,2.30
2023-03-26T18:40:27.462Z,3.65
2023-03-26T18:45:42.193Z,2.15
2023-03-26T18:50:45.361Z,2.20
2023-03-26T18:55:50.594Z,1.63
2023-03-26T19:00:59.686Z,1.55
2023-03-26T19:06:04.737Z,1.27
2023-03-26T19:11:09.039Z,1.10
2023-03-26T19:16:33.866Z,3.50
2023-03-26T19:21:36.614Z,4.32
2023-03-26T19:26:38.619Z,3.42
2023-03-26T19:31:41.156Z,3.35
2023-03-26T19:37:04.248Z,3.80
2023-03-26T19:42:12.457Z,4.20
2023-03-26T19:47:39.113Z,3.08
2023-03-26T19:52:48.079Z,3.28
2023-03-26T19:57:51.740Z,3.58
2023-03-26T20:02:53.684Z,4.15
2023-03-26T20:08:01.805Z,4.78
2023-03-26T20:13:03.610Z,4.88
2023-03-26T20:18:05.754Z,4.18
2023-03-26T20:23:14.605Z,3.97
2023-03-26T20:28:19.185Z,3.90
2023-03-26T20:33:26.835Z,4.13
2023-03-26T20:38:38.731Z,4.00
2023-03-26T20:43:42.539Z,4.03
2023-03-26T20:48:45.632Z,4.88
2023-03-26T20:53:48.287Z,4.63
2023-03-26T20:58:54.659Z,3.92
2023-03-26T21:04:04.386Z,4.68
2023-03-26T21:09:06.766Z,4.63
2023-03-26T21:14:25.272Z,5.72
2023-03-26T21:19:27.531Z,5.53
2023-03-26T21:24:41.902Z,4.45
2023-03-26T21:29:43.934Z,5.03
2023-03-26T21:34:55.764Z,4.95
2023-03-26T21:40:01.734Z,4.25
2023-03-26T21:45:04.225Z,4.10
2023-03-26T21:50:07.475Z,3.65
2023-03-26T21:55:11.557Z,3.15
2023-03-26T22:00:20.809Z,3.40
2023-03-26T22:05:34.304Z,3.42
2023-03-26T22:10:37.161Z,3.97
2023-03-26T22:15:38.969Z,3.40
2023-03-26T22:20:42.746Z,3.78
2023-03-26T22:25:45.554Z,3.85
2023-03-26T22:30:47.482Z,3.00
2023-03-26T22:35:49.309Z,2.63
2023-03-26T22:40:56.870Z,2.40
2023-03-26T22:45:59.047Z,1.83
2023-03-26T22:51:06.631Z,1.27
2023-03-26T22:56:08.950Z,1.23
2023-03-26T23:01:15.040Z,1.60
2023-03-26T23:06:17.208Z,1.88
2023-03-26T23:11:21.969Z,2.47
2023-03-26T23:16:23.976Z,2.35
2023-03-26T23:21:25.799Z,2.50
2023-03-26T23:26:34.977Z,2.58
2023-03-26T23:31:42.073Z,2.88
2023-03-26T23:36:44.885Z,2.65
2023-03-26T23:41:46.695Z,2.92
2023-03-26T23:46:48.626Z,2.88
2023-03-26T23:51:52.180Z,2.90
2023-03-26T23:56:55.048Z,3.20
